sensor_id;sensor_type;location;lat;lon;timestamp;temperature;humidity
24207;DHT22;12351;52.284;9.160;2023-02-12T00:02:03;7.60;99.90
24207;DHT22;12351;52.284;9.160;2023-02-12T00:04:53;7.60;99.90
24207;DHT22;12351;52.284;9.160;2023-02-12T00:07:47;7.60;99.90
24207;DHT22;12351;52.284;9.160;2023-02-12T00:13:29;7.50;99.90
24207;DHT22;12351;52.284;9.160;2023-02-12T00:16:19;7.50;99.90
24207;DHT22;12351;52.284;9.160;2023-02-12T00:19:09;7.60;99.90
24207;DHT22;12351;52.284;9.160;2023-02-12T00:22:00;7.60;99.90
24207;DHT22;12351;52.284;9.160;2023-02-12T00:24:51;7.60;99.90
24207;DHT22;12351;52.284;9.160;2023-02-12T00:27:40;7.60;99.90
24207;DHT22;12351;52.284;9.160;2023-02-12T00:30:30;7.60;99.90
24207;DHT22;12351;52.284;9.160;2023-02-12T00:33:20;7.60;99.90
24207;DHT22;12351;52.284;9.160;2023-02-12T00:36:12;7.50;99.90
24207;DHT22;12351;52.284;9.160;2023-02-12T00:39:00;7.50;99.90
24207;DHT22;12351;52.284;9.160;2023-02-12T00:41:51;7.50;99.90
24207;DHT22;12351;52.284;9.160;2023-02-12T00:44:43;7.50;99.90
24207;DHT22;12351;52.284;9.160;2023-02-12T00:47:34;7.50;99.90
24207;DHT22;12351;52.284;9.160;2023-02-12T00:50:27;7.50;99.90
24207;DHT22;12351;52.284;9.160;2023-02-12T00:53:16;7.50;99.90
24207;DHT22;12351;52.284;9.160;2023-02-12T00:56:08;7.50;99.90
24207;DHT22;12351;52.284;9.160;2023-02-12T00:59:02;7.50;99.90
24207;DHT22;12351;52.284;9.160;2023-02-12T01:01:53;7.50;99.90
24207;DHT22;12351;52.284;9.160;2023-02-12T01:04:43;7.40;99.90
24207;DHT22;12351;52.284;9.160;2023-02-12T01:07:33;7.40;99.90
24207;DHT22;12351;52.284;9.160;2023-02-12T01:10:23;7.40;99.90
24207;DHT22;12351;52.284;9.160;2023-02-12T01:13:14;7.40;99.90
24207;DHT22;12351;52.284;9.160;2023-02-12T01:16:08;7.40;99.90
24207;DHT22;12351;52.284;9.160;2023-02-12T01:18:58;7.40;99.90
24207;DHT22;12351;52.284;9.160;2023-02-12T01:21:52;7.40;99.90
24207;DHT22;12351;52.284;9.160;2023-02-12T01:24:41;7.40;99.90
24207;DHT22;12351;52.284;9.160;2023-02-12T01:27:34;7.40;99.90
24207;DHT22;12351;52.284;9.160;2023-02-12T01:30:25;7.40;99.90
24207;DHT22;12351;52.284;9.160;2023-02-12T01:33:12;7.30;99.90
24207;DHT22;12351;52.284;9.160;2023-02-12T01:36:01;7.40;99.90
24207;DHT22;12351;52.284;9.160;2023-02-12T01:38:50;7.30;99.90
24207;DHT22;12351;52.284;9.160;2023-02-12T01:41:44;7.30;99.90
24207;DHT22;12351;52.284;9.160;2023-02-12T01:44:35;7.20;99.90
24207;DHT22;12351;52.284;9.160;2023-02-12T01:47:25;7.30;99.90
24207;DHT22;12351;52.284;9.160;2023-02-12T01:50:17;7.30;99.90
24207;DHT22;12351;52.284;9.160;2023-02-12T01:53:08;7.20;99.90
24207;DHT22;12351;52.284;9.160;2023-02-12T01:55:58;7.20;99.90
24207;DHT22;12351;52.284;9.160;2023-02-12T01:58:51;7.20;99.90
24207;DHT22;12351;52.284;9.160;2023-02-12T02:01:44;7.20;99.90
24207;DHT22;12351;52.284;9.160;2023-02-12T02:07:25;7.10;99.90
24207;DHT22;12351;52.284;9.160;2023-02-12T02:10:15;7.20;99.90
24207;DHT22;12351;52.284;9.160;2023-02-12T02:13:05;7.20;99.90
24207;DHT22;12351;52.284;9.160;2023-02-12T02:16:04;7.10;99.90
24207;DHT22;12351;52.284;9.160;2023-02-12T02:18:54;7.10;99.90
24207;DHT22;12351;52.284;9.160;2023-02-12T02:27:29;7.10;99.90
24207;DHT22;12351;52.284;9.160;2023-02-12T02:36:04;7.00;99.90
24207;DHT22;12351;52.284;9.160;2023-02-12T02:38:54;7.00;99.90
24207;DHT22;12351;52.284;9.160;2023-02-12T02:41:44;7.00;99.90
24207;DHT22;12351;52.284;9.160;2023-02-12T02:44:35;7.00;99.90
24207;DHT22;12351;52.284;9.160;2023-02-12T02:47:28;7.00;99.90
24207;DHT22;12351;52.284;9.160;2023-02-12T02:50:17;7.00;99.90
24207;DHT22;12351;52.284;9.160;2023-02-12T02:53:11;7.00;99.90
24207;DHT22;12351;52.284;9.160;2023-02-12T02:56:01;7.00;99.90
24207;DHT22;12351;52.284;9.160;2023-02-12T02:58:52;7.00;99.90
24207;DHT22;12351;52.284;9.160;2023-02-12T03:01:45;7.00;99.90
24207;DHT22;12351;52.284;9.160;2023-02-12T03:07:25;7.00;99.90
24207;DHT22;12351;52.284;9.160;2023-02-12T03:10:17;7.00;99.90
24207;DHT22;12351;52.284;9.160;2023-02-12T03:13:08;7.00;99.90
24207;DHT22;12351;52.284;9.160;2023-02-12T03:16:01;7.00;99.90
24207;DHT22;12351;52.284;9.160;2023-02-12T03:18:50;7.00;99.90
24207;DHT22;12351;52.284;9.160;2023-02-12T03:21:41;6.90;99.90
24207;DHT22;12351;52.284;9.160;2023-02-12T03:30:11;7.00;99.90
24207;DHT22;12351;52.284;9.160;2023-02-12T03:35:59;6.90;99.90
24207;DHT22;12351;52.284;9.160;2023-02-12T03:38:48;6.90;99.90
24207;DHT22;12351;52.284;9.160;2023-02-12T03:41:43;6.90;99.90
24207;DHT22;12351;52.284;9.160;2023-02-12T03:50:07;6.90;99.90
24207;DHT22;12351;52.284;9.160;2023-02-12T03:52:54;6.90;99.90
24207;DHT22;12351;52.284;9.160;2023-02-12T03:55:46;6.90;99.90
24207;DHT22;12351;52.284;9.160;2023-02-12T03:58:37;6.90;99.90
24207;DHT22;12351;52.284;9.160;2023-02-12T04:01:26;6.90;99.90
24207;DHT22;12351;52.284;9.160;2023-02-12T04:04:19;6.90;99.90
24207;DHT22;12351;52.284;9.160;2023-02-12T04:07:09;6.90;99.90
24207;DHT22;12351;52.284;9.160;2023-02-12T04:10:00;6.90;99.90
24207;DHT22;12351;52.284;9.160;2023-02-12T04:12:52;6.90;99.90
24207;DHT22;12351;52.284;9.160;2023-02-12T04:15:45;6.90;99.90
24207;DHT22;12351;52.284;9.160;2023-02-12T04:21:44;6.90;99.90
24207;DHT22;12351;52.284;9.160;2023-02-12T04:24:38;6.90;99.90
24207;DHT22;12351;52.284;9.160;2023-02-12T04:27:26;6.90;99.90
24207;DHT22;12351;52.284;9.160;2023-02-12T04:33:07;6.90;99.90
24207;DHT22;12351;52.284;9.160;2023-02-12T04:41:38;6.90;99.90
24207;DHT22;12351;52.284;9.160;2023-02-12T04:44:30;6.90;99.90
24207;DHT22;12351;52.284;9.160;2023-02-12T04:47:22;6.90;99.90
24207;DHT22;12351;52.284;9.160;2023-02-12T04:50:10;6.90;99.90
24207;DHT22;12351;52.284;9.160;2023-02-12T04:53:03;6.90;99.90
24207;DHT22;12351;52.284;9.160;2023-02-12T04:55:52;6.90;99.90
24207;DHT22;12351;52.284;9.160;2023-02-12T04:58:44;6.80;99.90
24207;DHT22;12351;52.284;9.160;2023-02-12T05:01:35;6.90;99.90
24207;DHT22;12351;52.284;9.160;2023-02-12T05:04:25;6.90;99.90
24207;DHT22;12351;52.284;9.160;2023-02-12T05:07:14;6.90;99.90
24207;DHT22;12351;52.284;9.160;2023-02-12T05:10:01;6.90;99.90
24207;DHT22;12351;52.284;9.160;2023-02-12T05:12:52;6.90;99.90
24207;DHT22;12351;52.284;9.160;2023-02-12T05:15:44;6.90;99.90
24207;DHT22;12351;52.284;9.160;2023-02-12T05:18:33;6.90;99.90
24207;DHT22;12351;52.284;9.160;2023-02-12T05:21:24;6.90;99.90
24207;DHT22;12351;52.284;9.160;2023-02-12T05:24:17;6.90;99.90
24207;DHT22;12351;52.284;9.160;2023-02-12T05:27:08;6.80;99.90
24207;DHT22;12351;52.284;9.160;2023-02-12T05:29:57;6.90;99.90
24207;DHT22;12351;52.284;9.160;2023-02-12T05:32:48;6.90;99.90
24207;DHT22;12351;52.284;9.160;2023-02-12T05:35:37;6.80;99.90
24207;DHT22;12351;52.284;9.160;2023-02-12T05:38:29;6.80;99.90
24207;DHT22;12351;52.284;9.160;2023-02-12T05:41:21;6.80;99.90
24207;DHT22;12351;52.284;9.160;2023-02-12T05:44:10;6.80;99.90
24207;DHT22;12351;52.284;9.160;2023-02-12T05:47:01;6.80;99.90
24207;DHT22;12351;52.284;9.160;2023-02-12T05:49:54;6.80;99.90
24207;DHT22;12351;52.284;9.160;2023-02-12T05:52:44;6.80;99.90
24207;DHT22;12351;52.284;9.160;2023-02-12T05:55:36;6.80;99.90
24207;DHT22;12351;52.284;9.160;2023-02-12T05:58:26;6.80;99.90
24207;DHT22;12351;52.284;9.160;2023-02-12T06:01:18;6.80;99.90
24207;DHT22;12351;52.284;9.160;2023-02-12T06:04:09;6.80;99.90
24207;DHT22;12351;52.284;9.160;2023-02-12T06:06:58;6.80;99.90
24207;DHT22;12351;52.284;9.160;2023-02-12T06:09:50;6.70;99.90
24207;DHT22;12351;52.284;9.160;2023-02-12T06:12:40;6.80;99.90
24207;DHT22;12351;52.284;9.160;2023-02-12T06:15:29;6.80;99.90
24207;DHT22;12351;52.284;9.160;2023-02-12T06:18:19;6.80;99.90
24207;DHT22;12351;52.284;9.160;2023-02-12T06:21:07;6.80;99.90
24207;DHT22;12351;52.284;9.160;2023-02-12T06:23:58;6.80;99.90
24207;DHT22;12351;52.284;9.160;2023-02-12T06:26:50;6.90;99.90
24207;DHT22;12351;52.284;9.160;2023-02-12T06:29:43;6.80;99.90
24207;DHT22;12351;52.284;9.160;2023-02-12T06:32:32;6.80;99.90
24207;DHT22;12351;52.284;9.160;2023-02-12T06:35:21;6.80;99.90
24207;DHT22;12351;52.284;9.160;2023-02-12T06:38:14;6.80;99.90
24207;DHT22;12351;52.284;9.160;2023-02-12T06:41:05;6.90;99.90
24207;DHT22;12351;52.284;9.160;2023-02-12T06:43:56;6.80;99.90
24207;DHT22;12351;52.284;9.160;2023-02-12T06:46:48;6.80;99.90
24207;DHT22;12351;52.284;9.160;2023-02-12T06:49:37;6.80;99.90
24207;DHT22;12351;52.284;9.160;2023-02-12T06:52:28;6.80;99.90
24207;DHT22;12351;52.284;9.160;2023-02-12T06:55:20;6.80;99.90
24207;DHT22;12351;52.284;9.160;2023-02-12T06:58:08;6.80;99.90
24207;DHT22;12351;52.284;9.160;2023-02-12T07:03:52;6.90;99.90
24207;DHT22;12351;52.284;9.160;2023-02-12T07:06:43;6.80;99.90
24207;DHT22;12351;52.284;9.160;2023-02-12T07:09:30;6.80;99.90
24207;DHT22;12351;52.284;9.160;2023-02-12T07:12:20;6.90;99.90
24207;DHT22;12351;52.284;9.160;2023-02-12T07:15:13;6.90;99.90
24207;DHT22;12351;52.284;9.160;2023-02-12T07:18:09;6.90;99.90
24207;DHT22;12351;52.284;9.160;2023-02-12T07:20:58;6.90;99.90
24207;DHT22;12351;52.284;9.160;2023-02-12T07:23:52;6.90;99.90
24207;DHT22;12351;52.284;9.160;2023-02-12T07:26:40;6.90;99.90
24207;DHT22;12351;52.284;9.160;2023-02-12T07:29:31;6.90;99.90
24207;DHT22;12351;52.284;9.160;2023-02-12T07:32:19;6.90;99.90
24207;DHT22;12351;52.284;9.160;2023-02-12T07:35:09;6.90;99.90
24207;DHT22;12351;52.284;9.160;2023-02-12T07:37:58;6.90;99.90
24207;DHT22;12351;52.284;9.160;2023-02-12T07:40:46;6.90;99.90
24207;DHT22;12351;52.284;9.160;2023-02-12T07:43:38;6.90;99.90
24207;DHT22;12351;52.284;9.160;2023-02-12T07:46:32;6.90;99.90
24207;DHT22;12351;52.284;9.160;2023-02-12T07:49:24;6.90;99.90
24207;DHT22;12351;52.284;9.160;2023-02-12T07:52:13;6.90;99.90
24207;DHT22;12351;52.284;9.160;2023-02-12T07:55:04;6.90;99.90
24207;DHT22;12351;52.284;9.160;2023-02-12T07:57:56;6.90;99.90
24207;DHT22;12351;52.284;9.160;2023-02-12T08:00:47;6.90;99.90
24207;DHT22;12351;52.284;9.160;2023-02-12T08:03:38;6.90;99.90
24207;DHT22;12351;52.284;9.160;2023-02-12T08:06:29;7.00;99.90
24207;DHT22;12351;52.284;9.160;2023-02-12T08:09:20;7.00;99.90
24207;DHT22;12351;52.284;9.160;2023-02-12T08:12:10;7.00;99.90
24207;DHT22;12351;52.284;9.160;2023-02-12T08:14:59;7.00;99.90
24207;DHT22;12351;52.284;9.160;2023-02-12T08:17:49;7.00;99.90
24207;DHT22;12351;52.284;9.160;2023-02-12T08:20:39;7.00;99.90
24207;DHT22;12351;52.284;9.160;2023-02-12T08:23:29;7.00;99.90
24207;DHT22;12351;52.284;9.160;2023-02-12T08:29:11;7.00;99.90
24207;DHT22;12351;52.284;9.160;2023-02-12T08:32:02;7.00;99.90
24207;DHT22;12351;52.284;9.160;2023-02-12T08:34:52;7.10;99.90
24207;DHT22;12351;52.284;9.160;2023-02-12T08:37:43;7.00;99.90
24207;DHT22;12351;52.284;9.160;2023-02-12T08:40:34;7.00;99.90
24207;DHT22;12351;52.284;9.160;2023-02-12T08:43:24;7.00;99.90
24207;DHT22;12351;52.284;9.160;2023-02-12T08:46:17;7.00;99.90
24207;DHT22;12351;52.284;9.160;2023-02-12T08:49:11;7.00;99.90
24207;DHT22;12351;52.284;9.160;2023-02-12T08:52:01;7.00;99.90
24207;DHT22;12351;52.284;9.160;2023-02-12T08:54:49;7.00;99.90
24207;DHT22;12351;52.284;9.160;2023-02-12T08:57:40;7.10;99.90
24207;DHT22;12351;52.284;9.160;2023-02-12T09:00:30;7.10;99.90
24207;DHT22;12351;52.284;9.160;2023-02-12T09:03:21;7.10;99.90
24207;DHT22;12351;52.284;9.160;2023-02-12T09:06:13;7.10;99.90
24207;DHT22;12351;52.284;9.160;2023-02-12T09:09:05;7.20;99.90
24207;DHT22;12351;52.284;9.160;2023-02-12T09:11:56;7.10;99.90
24207;DHT22;12351;52.284;9.160;2023-02-12T09:14:48;7.20;99.90
24207;DHT22;12351;52.284;9.160;2023-02-12T09:17:37;7.20;99.90
24207;DHT22;12351;52.284;9.160;2023-02-12T09:20:26;7.20;99.90
24207;DHT22;12351;52.284;9.160;2023-02-12T09:23:17;7.30;99.90
24207;DHT22;12351;52.284;9.160;2023-02-12T09:26:09;7.30;99.90
24207;DHT22;12351;52.284;9.160;2023-02-12T09:29:02;7.20;99.90
24207;DHT22;12351;52.284;9.160;2023-02-12T09:31:52;7.30;99.90
24207;DHT22;12351;52.284;9.160;2023-02-12T09:34:42;7.30;99.90
24207;DHT22;12351;52.284;9.160;2023-02-12T09:37:33;7.40;99.90
24207;DHT22;12351;52.284;9.160;2023-02-12T09:40:27;7.30;99.90
24207;DHT22;12351;52.284;9.160;2023-02-12T09:51:48;7.30;99.90
24207;DHT22;12351;52.284;9.160;2023-02-12T09:54:41;7.30;99.90
24207;DHT22;12351;52.284;9.160;2023-02-12T09:57:31;7.30;99.90
24207;DHT22;12351;52.284;9.160;2023-02-12T10:03:16;7.40;99.90
24207;DHT22;12351;52.284;9.160;2023-02-12T10:06:06;7.40;99.90
24207;DHT22;12351;52.284;9.160;2023-02-12T10:28:56;7.50;99.90
24207;DHT22;12351;52.284;9.160;2023-02-12T10:31:47;7.60;99.90
24207;DHT22;12351;52.284;9.160;2023-02-12T10:34:39;7.60;99.90
24207;DHT22;12351;52.284;9.160;2023-02-12T10:40:22;7.60;99.90
24207;DHT22;12351;52.284;9.160;2023-02-12T10:43:11;7.60;99.90
24207;DHT22;12351;52.284;9.160;2023-02-12T10:46:01;7.60;99.90
24207;DHT22;12351;52.284;9.160;2023-02-12T10:48:52;7.60;99.90
24207;DHT22;12351;52.284;9.160;2023-02-12T10:54:34;7.60;99.90
24207;DHT22;12351;52.284;9.160;2023-02-12T10:57:25;7.50;99.90
24207;DHT22;12351;52.284;9.160;2023-02-12T11:06:07;7.60;99.90
24207;DHT22;12351;52.284;9.160;2023-02-12T11:08:49;7.60;99.90
24207;DHT22;12351;52.284;9.160;2023-02-12T11:11:41;7.60;99.90
24207;DHT22;12351;52.284;9.160;2023-02-12T11:14:32;7.60;99.90
24207;DHT22;12351;52.284;9.160;2023-02-12T11:17:24;7.60;99.90
24207;DHT22;12351;52.284;9.160;2023-02-12T11:23:04;7.70;99.90
24207;DHT22;12351;52.284;9.160;2023-02-12T11:25:54;7.60;99.90
24207;DHT22;12351;52.284;9.160;2023-02-12T11:31:35;7.70;99.90
24207;DHT22;12351;52.284;9.160;2023-02-12T11:34:26;7.70;99.90
24207;DHT22;12351;52.284;9.160;2023-02-12T11:37:17;7.70;99.90
24207;DHT22;12351;52.284;9.160;2023-02-12T11:40:10;7.70;99.90
24207;DHT22;12351;52.284;9.160;2023-02-12T11:42:58;7.70;99.90
24207;DHT22;12351;52.284;9.160;2023-02-12T11:45:50;7.80;99.90
24207;DHT22;12351;52.284;9.160;2023-02-12T11:48:43;7.70;99.90
24207;DHT22;12351;52.284;9.160;2023-02-12T11:54:59;7.80;99.90
24207;DHT22;12351;52.284;9.160;2023-02-12T11:57:51;7.80;99.90
24207;DHT22;12351;52.284;9.160;2023-02-12T12:00:45;7.80;99.90
24207;DHT22;12351;52.284;9.160;2023-02-12T12:03:35;7.70;99.90
24207;DHT22;12351;52.284;9.160;2023-02-12T12:17:47;7.80;99.90
24207;DHT22;12351;52.284;9.160;2023-02-12T12:20:39;7.80;99.90
24207;DHT22;12351;52.284;9.160;2023-02-12T12:23:30;7.80;99.90
24207;DHT22;12351;52.284;9.160;2023-02-12T12:31:53;7.90;99.90
24207;DHT22;12351;52.284;9.160;2023-02-12T12:34:39;7.90;99.90
24207;DHT22;12351;52.284;9.160;2023-02-12T12:37:36;8.00;99.90
24207;DHT22;12351;52.284;9.160;2023-02-12T12:48:57;7.90;99.90
24207;DHT22;12351;52.284;9.160;2023-02-12T12:57:32;7.80;99.90
24207;DHT22;12351;52.284;9.160;2023-02-12T13:17:22;8.10;99.90
24207;DHT22;12351;52.284;9.160;2023-02-12T13:20:15;8.10;99.90
24207;DHT22;12351;52.284;9.160;2023-02-12T13:23:05;8.00;99.90
24207;DHT22;12351;52.284;9.160;2023-02-12T13:28:47;7.90;99.90
24207;DHT22;12351;52.284;9.160;2023-02-12T13:31:41;7.90;99.90
24207;DHT22;12351;52.284;9.160;2023-02-12T13:34:29;7.90;99.90
24207;DHT22;12351;52.284;9.160;2023-02-12T13:57:19;7.90;99.90
24207;DHT22;12351;52.284;9.160;2023-02-12T14:03:06;7.90;99.90
24207;DHT22;12351;52.284;9.160;2023-02-12T14:08:45;7.90;99.90
24207;DHT22;12351;52.284;9.160;2023-02-12T14:11:45;7.90;99.90
24207;DHT22;12351;52.284;9.160;2023-02-12T14:14:27;7.90;99.90
24207;DHT22;12351;52.284;9.160;2023-02-12T14:20:13;7.90;99.90
24207;DHT22;12351;52.284;9.160;2023-02-12T14:23:01;7.90;99.90
24207;DHT22;12351;52.284;9.160;2023-02-12T14:28:42;7.90;99.90
24207;DHT22;12351;52.284;9.160;2023-02-12T14:31:33;7.90;99.90
24207;DHT22;12351;52.284;9.160;2023-02-12T14:37:17;7.80;99.90
24207;DHT22;12351;52.284;9.160;2023-02-12T14:42:57;7.80;99.90
24207;DHT22;12351;52.284;9.160;2023-02-12T14:45:46;7.90;99.90
24207;DHT22;12351;52.284;9.160;2023-02-12T14:48:38;7.90;99.90
24207;DHT22;12351;52.284;9.160;2023-02-12T15:03:00;7.80;99.90
24207;DHT22;12351;52.284;9.160;2023-02-12T15:08:40;7.80;99.90
24207;DHT22;12351;52.284;9.160;2023-02-12T15:14:25;7.80;99.90
24207;DHT22;12351;52.284;9.160;2023-02-12T15:17:16;7.80;99.90
24207;DHT22;12351;52.284;9.160;2023-02-12T15:22:59;7.80;99.90
24207;DHT22;12351;52.284;9.160;2023-02-12T15:25:48;7.80;99.90
24207;DHT22;12351;52.284;9.160;2023-02-12T15:28:44;7.80;99.90
24207;DHT22;12351;52.284;9.160;2023-02-12T15:31:33;7.80;99.90
24207;DHT22;12351;52.284;9.160;2023-02-12T15:34:24;7.80;99.90
24207;DHT22;12351;52.284;9.160;2023-02-12T15:37:15;7.70;99.90
24207;DHT22;12351;52.284;9.160;2023-02-12T15:40:02;7.70;99.90
24207;DHT22;12351;52.284;9.160;2023-02-12T15:42:56;7.80;99.90
24207;DHT22;12351;52.284;9.160;2023-02-12T15:48:37;7.70;99.90
24207;DHT22;12351;52.284;9.160;2023-02-12T15:51:29;7.70;99.90
24207;DHT22;12351;52.284;9.160;2023-02-12T15:54:18;7.70;99.90
24207;DHT22;12351;52.284;9.160;2023-02-12T15:57:11;7.70;99.90
24207;DHT22;12351;52.284;9.160;2023-02-12T16:02:51;7.70;99.90
24207;DHT22;12351;52.284;9.160;2023-02-12T16:08:33;7.70;99.90
24207;DHT22;12351;52.284;9.160;2023-02-12T16:11:25;7.70;99.90
24207;DHT22;12351;52.284;9.160;2023-02-12T16:14:18;7.60;99.90
24207;DHT22;12351;52.284;9.160;2023-02-12T16:22:50;7.70;99.90
24207;DHT22;12351;52.284;9.160;2023-02-12T16:25:42;7.60;99.90
24207;DHT22;12351;52.284;9.160;2023-02-12T16:28:32;7.60;99.90
24207;DHT22;12351;52.284;9.160;2023-02-12T16:31:22;7.60;99.90
24207;DHT22;12351;52.284;9.160;2023-02-12T16:34:24;7.60;99.90
24207;DHT22;12351;52.284;9.160;2023-02-12T16:45:39;7.60;99.90
24207;DHT22;12351;52.284;9.160;2023-02-12T16:48:29;7.60;99.90
24207;DHT22;12351;52.284;9.160;2023-02-12T16:51:24;7.50;99.90
24207;DHT22;12351;52.284;9.160;2023-02-12T16:57:07;7.50;99.90
24207;DHT22;12351;52.284;9.160;2023-02-12T16:59:55;7.50;99.90
24207;DHT22;12351;52.284;9.160;2023-02-12T17:02:48;7.50;99.90
24207;DHT22;12351;52.284;9.160;2023-02-12T17:05:36;7.50;99.90
24207;DHT22;12351;52.284;9.160;2023-02-12T17:08:29;7.50;99.90
24207;DHT22;12351;52.284;9.160;2023-02-12T17:11:18;7.50;99.90
24207;DHT22;12351;52.284;9.160;2023-02-12T17:14:11;7.50;99.90
24207;DHT22;12351;52.284;9.160;2023-02-12T17:17:00;7.40;99.90
24207;DHT22;12351;52.284;9.160;2023-02-12T17:19:52;7.40;99.90
24207;DHT22;12351;52.284;9.160;2023-02-12T17:22:46;7.40;99.90
24207;DHT22;12351;52.284;9.160;2023-02-12T17:25:33;7.40;99.90
24207;DHT22;12351;52.284;9.160;2023-02-12T17:28:22;7.40;99.90
24207;DHT22;12351;52.284;9.160;2023-02-12T17:31:11;7.40;99.90
24207;DHT22;12351;52.284;9.160;2023-02-12T17:34:04;7.40;99.90
24207;DHT22;12351;52.284;9.160;2023-02-12T17:36:54;7.40;99.90
24207;DHT22;12351;52.284;9.160;2023-02-12T17:39:47;7.40;99.90
24207;DHT22;12351;52.284;9.160;2023-02-12T17:42:36;7.40;99.90
24207;DHT22;12351;52.284;9.160;2023-02-12T17:45:26;7.40;99.90
24207;DHT22;12351;52.284;9.160;2023-02-12T17:48:19;7.40;99.90
24207;DHT22;12351;52.284;9.160;2023-02-12T17:51:10;7.30;99.90
24207;DHT22;12351;52.284;9.160;2023-02-12T17:54:03;7.30;99.90
24207;DHT22;12351;52.284;9.160;2023-02-12T17:56:53;7.30;99.90
24207;DHT22;12351;52.284;9.160;2023-02-12T17:59:44;7.30;99.90
24207;DHT22;12351;52.284;9.160;2023-02-12T18:02:37;7.30;99.90
24207;DHT22;12351;52.284;9.160;2023-02-12T18:05:27;7.30;99.90
24207;DHT22;12351;52.284;9.160;2023-02-12T18:08:18;7.30;99.90
24207;DHT22;12351;52.284;9.160;2023-02-12T18:11:08;7.30;99.90
24207;DHT22;12351;52.284;9.160;2023-02-12T18:13:58;7.30;99.90
24207;DHT22;12351;52.284;9.160;2023-02-12T18:16:50;7.30;99.90
24207;DHT22;12351;52.284;9.160;2023-02-12T18:19:43;7.30;99.90
24207;DHT22;12351;52.284;9.160;2023-02-12T18:22:33;7.30;99.90
24207;DHT22;12351;52.284;9.160;2023-02-12T18:25:26;7.30;99.90
24207;DHT22;12351;52.284;9.160;2023-02-12T18:28:15;7.30;99.90
24207;DHT22;12351;52.284;9.160;2023-02-12T18:31:07;7.30;99.90
24207;DHT22;12351;52.284;9.160;2023-02-12T18:33:57;7.30;99.90
24207;DHT22;12351;52.284;9.160;2023-02-12T18:36:50;7.30;99.90
24207;DHT22;12351;52.284;9.160;2023-02-12T18:39:38;7.20;99.90
24207;DHT22;12351;52.284;9.160;2023-02-12T18:42:27;7.20;99.90
24207;DHT22;12351;52.284;9.160;2023-02-12T18:45:20;7.20;99.90
24207;DHT22;12351;52.284;9.160;2023-02-12T18:48:07;7.20;99.90
24207;DHT22;12351;52.284;9.160;2023-02-12T18:50:59;7.20;99.90
24207;DHT22;12351;52.284;9.160;2023-02-12T18:56:42;7.20;99.90
24207;DHT22;12351;52.284;9.160;2023-02-12T18:59:31;7.20;99.90
24207;DHT22;12351;52.284;9.160;2023-02-12T19:02:22;7.20;99.90
24207;DHT22;12351;52.284;9.160;2023-02-12T19:05:13;7.20;99.90
24207;DHT22;12351;52.284;9.160;2023-02-12T19:08:04;7.20;99.90
24207;DHT22;12351;52.284;9.160;2023-02-12T19:10:54;7.20;99.90
24207;DHT22;12351;52.284;9.160;2023-02-12T19:13:46;7.20;99.90
24207;DHT22;12351;52.284;9.160;2023-02-12T19:16:35;7.30;99.90
24207;DHT22;12351;52.284;9.160;2023-02-12T19:19:26;7.20;99.90
24207;DHT22;12351;52.284;9.160;2023-02-12T19:22:15;7.20;99.90
24207;DHT22;12351;52.284;9.160;2023-02-12T19:25:05;7.20;99.90
24207;DHT22;12351;52.284;9.160;2023-02-12T19:27:58;7.20;99.90
24207;DHT22;12351;52.284;9.160;2023-02-12T19:30:45;7.20;99.90
24207;DHT22;12351;52.284;9.160;2023-02-12T19:33:36;7.20;99.90
24207;DHT22;12351;52.284;9.160;2023-02-12T19:36:34;7.10;99.90
24207;DHT22;12351;52.284;9.160;2023-02-12T19:39:29;7.10;99.90
24207;DHT22;12351;52.284;9.160;2023-02-12T19:42:24;7.10;99.90
24207;DHT22;12351;52.284;9.160;2023-02-12T19:45:18;7.10;99.90
24207;DHT22;12351;52.284;9.160;2023-02-12T19:48:09;7.10;99.90
24207;DHT22;12351;52.284;9.160;2023-02-12T19:51:03;7.10;99.90
24207;DHT22;12351;52.284;9.160;2023-02-12T19:54:03;7.10;99.90
24207;DHT22;12351;52.284;9.160;2023-02-12T19:57:00;7.10;99.90
24207;DHT22;12351;52.284;9.160;2023-02-12T19:59:50;7.00;99.90
24207;DHT22;12351;52.284;9.160;2023-02-12T20:02:47;7.00;99.90
24207;DHT22;12351;52.284;9.160;2023-02-12T20:05:42;7.00;99.90
24207;DHT22;12351;52.284;9.160;2023-02-12T20:11:27;7.00;99.90
24207;DHT22;12351;52.284;9.160;2023-02-12T20:14:19;7.10;99.90
24207;DHT22;12351;52.284;9.160;2023-02-12T20:17:10;7.10;99.90
24207;DHT22;12351;52.284;9.160;2023-02-12T20:19:59;7.00;99.90
24207;DHT22;12351;52.284;9.160;2023-02-12T20:22:53;7.10;99.90
24207;DHT22;12351;52.284;9.160;2023-02-12T20:25:43;7.00;99.90
24207;DHT22;12351;52.284;9.160;2023-02-12T20:28:34;7.00;99.90
24207;DHT22;12351;52.284;9.160;2023-02-12T20:31:27;7.00;99.90
24207;DHT22;12351;52.284;9.160;2023-02-12T20:34:19;7.00;99.90
24207;DHT22;12351;52.284;9.160;2023-02-12T20:37:10;7.00;99.90
24207;DHT22;12351;52.284;9.160;2023-02-12T20:40:00;7.00;99.90
24207;DHT22;12351;52.284;9.160;2023-02-12T20:42:51;7.00;99.90
24207;DHT22;12351;52.284;9.160;2023-02-12T20:45:42;7.00;99.90
24207;DHT22;12351;52.284;9.160;2023-02-12T20:48:33;7.00;99.90
24207;DHT22;12351;52.284;9.160;2023-02-12T20:51:24;6.90;99.90
24207;DHT22;12351;52.284;9.160;2023-02-12T20:54:17;6.90;99.90
24207;DHT22;12351;52.284;9.160;2023-02-12T20:57:08;7.00;99.90
24207;DHT22;12351;52.284;9.160;2023-02-12T21:00:02;7.00;99.90
24207;DHT22;12351;52.284;9.160;2023-02-12T21:02:51;6.90;99.90
24207;DHT22;12351;52.284;9.160;2023-02-12T21:05:43;7.00;99.90
24207;DHT22;12351;52.284;9.160;2023-02-12T21:08:34;6.90;99.90
24207;DHT22;12351;52.284;9.160;2023-02-12T21:11:27;6.90;99.90
24207;DHT22;12351;52.284;9.160;2023-02-12T21:14:16;6.90;99.90
24207;DHT22;12351;52.284;9.160;2023-02-12T21:17:05;6.90;99.90
24207;DHT22;12351;52.284;9.160;2023-02-12T21:19:57;6.90;99.90
24207;DHT22;12351;52.284;9.160;2023-02-12T21:22:46;6.90;99.90
24207;DHT22;12351;52.284;9.160;2023-02-12T21:25:37;6.90;99.90
24207;DHT22;12351;52.284;9.160;2023-02-12T21:28:29;6.90;99.90
24207;DHT22;12351;52.284;9.160;2023-02-12T21:31:20;6.80;99.90
24207;DHT22;12351;52.284;9.160;2023-02-12T21:34:10;6.80;99.90
24207;DHT22;12351;52.284;9.160;2023-02-12T21:37:00;6.90;99.90
24207;DHT22;12351;52.284;9.160;2023-02-12T21:39:49;6.90;99.90
24207;DHT22;12351;52.284;9.160;2023-02-12T21:42:39;6.90;99.90
24207;DHT22;12351;52.284;9.160;2023-02-12T21:45:32;6.90;99.90
24207;DHT22;12351;52.284;9.160;2023-02-12T21:48:20;6.80;99.90
24207;DHT22;12351;52.284;9.160;2023-02-12T21:54:05;6.80;99.90
24207;DHT22;12351;52.284;9.160;2023-02-12T21:56:53;6.90;99.90
24207;DHT22;12351;52.284;9.160;2023-02-12T21:59:45;6.90;99.90
24207;DHT22;12351;52.284;9.160;2023-02-12T22:02:36;6.90;99.90
24207;DHT22;12351;52.284;9.160;2023-02-12T22:05:29;6.90;99.90
24207;DHT22;12351;52.284;9.160;2023-02-12T22:08:18;6.90;99.90
24207;DHT22;12351;52.284;9.160;2023-02-12T22:11:09;6.90;99.90
24207;DHT22;12351;52.284;9.160;2023-02-12T22:14:00;6.90;99.90
24207;DHT22;12351;52.284;9.160;2023-02-12T22:16:50;6.90;99.90
24207;DHT22;12351;52.284;9.160;2023-02-12T22:19:39;6.90;99.90
24207;DHT22;12351;52.284;9.160;2023-02-12T22:22:31;6.90;99.90